Time;durP1;ratioP1;P1;durP2;ratioP2;P2;SDS_P1;SDS_P2;PMS_P1;PMS_P2;Temp;Humidity;BMP_temperature;BMP_pressure;BME280_temperature;BME280_humidity;BME280_pressure;Samples;Min_cycle;Max_cycle;Signal;HPM_P1;HPM_P2
2021/08/11 00:01:33;;;;;;;16.42;11.02;;;16.00;88.70;;;;;;5030711;28;20052;-74
2021/08/11 00:03:58;;;;;;;17.33;10.70;;;15.90;88.90;;;;;;5033168;28;20041;-75
2021/08/11 00:06:24;;;;;;;16.15;11.65;;;15.90;88.90;;;;;;5052478;28;20530;-74
2021/08/11 00:08:49;;;;;;;16.95;11.27;;;15.90;89.00;;;;;;5036465;28;20036;-74
2021/08/11 00:11:15;;;;;;;17.58;12.05;;;15.90;89.10;;;;;;5051429;28;20485;-74
2021/08/11 00:13:41;;;;;;;16.50;11.30;;;15.80;89.10;;;;;;5014020;28;20024;-74
2021/08/11 00:16:07;;;;;;;12.98;10.02;;;15.80;89.10;;;;;;5030568;28;20532;-75
2021/08/11 00:18:32;;;;;;;19.67;11.32;;;15.80;89.30;;;;;;5031646;28;20022;-74
2021/08/11 00:20:58;;;;;;;14.05;9.85;;;15.80;89.40;;;;;;5031863;28;20045;-73
2021/08/11 00:23:25;;;;;;;13.30;9.90;;;15.80;89.60;;;;;;5032071;28;20056;-74
2021/08/11 00:25:54;;;;;;;15.02;10.52;;;15.80;89.80;;;;;;5031293;28;20026;-74
2021/08/11 00:28:25;;;;;;;19.30;11.68;;;15.80;89.80;;;;;;5030546;28;20038;-74
2021/08/11 00:30:52;;;;;;;15.63;11.32;;;15.80;89.70;;;;;;5031583;28;20025;-73
2021/08/11 00:33:18;;;;;;;14.65;12.20;;;15.80;89.80;;;;;;5031543;28;20490;-74
2021/08/11 00:35:44;;;;;;;20.33;13.98;;;15.80;89.60;;;;;;5031424;28;20014;-73
2021/08/11 00:38:10;;;;;;;17.45;12.73;;;15.80;89.60;;;;;;5031494;28;20033;-74
2021/08/11 00:40:36;;;;;;;15.77;9.95;;;15.80;89.60;;;;;;5030272;28;20052;-73
2021/08/11 00:43:06;;;;;;;17.88;11.23;;;15.70;89.60;;;;;;5017407;28;20022;-73
2021/08/11 00:45:32;;;;;;;14.27;11.50;;;15.70;89.80;;;;;;5034010;28;20024;-74
2021/08/11 00:47:57;;;;;;;16.33;12.15;;;15.70;89.80;;;;;;5035499;28;20440;-73
2021/08/11 00:50:23;;;;;;;19.13;12.20;;;15.70;89.70;;;;;;5036263;28;20021;-73
2021/08/11 00:52:49;;;;;;;16.00;12.65;;;15.70;89.80;;;;;;5020299;28;20048;-74
2021/08/11 00:55:15;;;;;;;18.55;12.82;;;15.70;89.90;;;;;;5041508;28;20017;-74
2021/08/11 00:57:42;;;;;;;15.20;12.60;;;15.60;90.00;;;;;;5043754;28;20104;-73
2021/08/11 01:00:09;;;;;;;18.73;13.15;;;15.60;90.00;;;;;;5043132;28;20022;-74
2021/08/11 01:02:38;;;;;;;18.15;13.88;;;15.60;90.00;;;;;;5036330;28;20025;-75
2021/08/11 01:05:05;;;;;;;19.55;12.80;;;15.60;90.00;;;;;;5040975;28;20057;-74
2021/08/11 01:07:33;;;;;;;18.75;11.52;;;15.50;90.00;;;;;;5053180;28;20013;-74
2021/08/11 01:09:59;;;;;;;16.88;11.93;;;15.50;90.30;;;;;;5053485;28;20020;-74
2021/08/11 01:12:27;;;;;;;16.48;12.90;;;15.50;90.00;;;;;;5054431;28;20048;-74
2021/08/11 01:14:53;;;;;;;15.15;11.98;;;15.50;90.10;;;;;;5053036;28;20028;-73
2021/08/11 01:17:24;;;;;;;16.65;13.43;;;15.50;90.00;;;;;;5054492;28;20025;-73
2021/08/11 01:19:49;;;;;;;18.30;14.02;;;15.50;90.00;;;;;;5054132;28;20021;-74
2021/08/11 01:22:54;;;;;;;19.88;14.85;;;15.50;90.10;;;;;;5054449;28;20082;-74
2021/08/11 01:25:27;;;;;;;21.30;15.07;;;15.50;90.20;;;;;;5045225;28;20084;-74
2021/08/11 01:28:11;;;;;;;19.95;16.08;;;15.50;90.30;;;;;;5035788;28;20021;-74
2021/08/11 01:30:59;;;;;;;22.65;16.45;;;15.50;90.40;;;;;;5053883;28;20036;-74
2021/08/11 01:33:55;;;;;;;21.90;16.55;;;15.50;90.40;;;;;;5054474;28;20043;-74
2021/08/11 01:36:52;;;;;;;20.85;15.60;;;15.40;90.40;;;;;;5053919;28;20025;-74
2021/08/11 01:39:30;;;;;;;19.90;15.10;;;15.40;90.40;;;;;;5053992;28;20036;-73
2021/08/11 01:42:01;;;;;;;18.58;13.75;;;15.40;90.40;;;;;;5053460;28;20029;-74
2021/08/11 01:44:51;;;;;;;18.60;14.23;;;15.40;90.50;;;;;;5036052;28;20520;-74
2021/08/11 01:47:22;;;;;;;20.00;14.57;;;15.40;90.50;;;;;;5053569;28;20033;-74
2021/08/11 01:49:47;;;;;;;;;;;15.40;90.40;;;;;;5053995;28;20025;-75
2021/08/11 01:52:14;;;;;;;18.98;15.73;;;15.40;90.40;;;;;;5053629;28;20038;-74
2021/08/11 01:54:42;;;;;;;24.60;16.92;;;15.40;90.40;;;;;;5053927;28;20495;-74
2021/08/11 01:57:10;;;;;;;16.23;13.60;;;15.30;90.40;;;;;;5054075;28;20155;-73
2021/08/11 01:59:37;;;;;;;20.95;16.38;;;15.30;90.50;;;;;;5059527;28;20028;-74
2021/08/11 02:02:03;;;;;;;18.55;16.27;;;15.30;90.60;;;;;;5067094;28;20039;-73
2021/08/11 02:04:29;;;;;;;20.25;16.33;;;15.30;90.50;;;;;;5058841;28;20025;-74
2021/08/11 02:06:56;;;;;;;22.20;16.52;;;15.30;90.80;;;;;;5043819;28;20484;-72
2021/08/11 02:09:22;;;;;;;21.08;17.33;;;15.40;90.60;;;;;;5040617;28;20063;-74
2021/08/11 02:11:48;;;;;;;20.70;17.77;;;15.40;90.60;;;;;;5035144;28;20363;-74
2021/08/11 02:14:15;;;;;;;21.40;17.67;;;15.40;90.60;;;;;;5039039;28;20043;-73
2021/08/11 02:16:41;;;;;;;21.20;16.52;;;15.40;90.50;;;;;;5036408;28;20026;-74
2021/08/11 02:19:11;;;;;;;21.30;16.48;;;15.30;90.50;;;;;;5017172;28;20057;-74
2021/08/11 02:21:38;;;;;;;22.05;17.77;;;15.30;90.50;;;;;;5031639;28;20033;-73
2021/08/11 02:24:06;;;;;;;22.25;16.85;;;15.30;90.40;;;;;;5033260;28;20359;-74
2021/08/11 02:26:42;;;;;;;21.38;17.70;;;15.30;90.30;;;;;;5032947;28;20028;-74
2021/08/11 02:29:26;;;;;;;21.30;18.08;;;15.20;90.30;;;;;;5033161;28;20049;-74
2021/08/11 02:31:59;;;;;;;25.58;18.73;;;15.20;90.40;;;;;;5033093;28;20420;-75
2021/08/11 02:34:28;;;;;;;22.23;17.20;;;15.10;90.60;;;;;;5032961;28;20025;-74
2021/08/11 02:37:01;;;;;;;19.65;16.88;;;15.10;90.70;;;;;;5032795;28;20087;-74
2021/08/11 02:39:38;;;;;;;22.67;17.90;;;15.20;90.90;;;;;;5032929;28;20037;-74
2021/08/11 02:42:07;;;;;;;19.98;16.55;;;15.20;90.90;;;;;;5033033;28;20068;-74
2021/08/11 02:44:35;;;;;;;21.25;16.90;;;15.20;90.90;;;;;;5033304;28;20017;-74
2021/08/11 02:47:01;;;;;;;20.70;17.75;;;15.20;90.80;;;;;;5031247;28;20029;-73
2021/08/11 02:49:30;;;;;;;22.95;16.38;;;15.20;90.80;;;;;;5014790;28;20370;-73
2021/08/11 02:51:59;;;;;;;23.52;17.35;;;15.20;90.90;;;;;;5032614;28;20029;-74
2021/08/11 02:54:27;;;;;;;20.15;14.35;;;15.20;90.90;;;;;;5032893;28;20100;-74
2021/08/11 02:56:54;;;;;;;20.08;17.00;;;15.20;90.80;;;;;;5031800;28;20036;-74
2021/08/11 02:59:22;;;;;;;22.15;17.98;;;15.20;90.90;;;;;;5032691;28;20025;-73
2021/08/11 03:01:49;;;;;;;18.10;15.48;;;15.20;90.90;;;;;;5031001;28;20474;-75
2021/08/11 03:04:15;;;;;;;19.40;15.95;;;15.20;90.90;;;;;;5014562;28;20018;-74
2021/08/11 03:06:41;;;;;;;21.90;16.15;;;15.20;91.00;;;;;;5034663;28;20053;-74
2021/08/11 03:09:08;;;;;;;21.08;18.08;;;15.10;90.90;;;;;;5014920;28;20029;-73
2021/08/11 03:11:35;;;;;;;21.98;16.65;;;15.10;91.00;;;;;;5032661;28;20037;-74
2021/08/11 03:14:02;;;;;;;21.80;17.60;;;15.20;91.00;;;;;;5032280;28;20028;-74
2021/08/11 03:16:29;;;;;;;20.90;16.65;;;15.20;91.10;;;;;;5031329;28;20373;-74
2021/08/11 03:18:54;;;;;;;21.75;17.67;;;15.20;91.10;;;;;;5032070;28;20503;-74
2021/08/11 03:21:20;;;;;;;21.60;17.52;;;15.20;91.00;;;;;;5031988;28;20061;-73
2021/08/11 03:23:46;;;;;;;20.13;15.90;;;15.10;91.00;;;;;;5032207;28;20026;-74
2021/08/11 03:26:12;;;;;;;20.50;16.50;;;15.10;91.00;;;;;;5032545;28;20105;-73
2021/08/11 03:28:38;;;;;;;23.50;17.45;;;15.20;91.30;;;;;;5032662;28;20029;-74
2021/08/11 03:31:04;;;;;;;21.85;17.92;;;15.10;90.90;;;;;;5032418;28;20091;-74
2021/08/11 03:33:29;;;;;;;22.27;18.58;;;15.10;91.00;;;;;;5032686;28;20025;-75
2021/08/11 03:35:55;;;;;;;19.65;17.33;;;15.10;91.00;;;;;;5032061;28;20512;-73
2021/08/11 03:38:21;;;;;;;21.15;17.13;;;15.00;91.00;;;;;;5032341;28;20083;-74
2021/08/11 03:40:46;;;;;;;20.52;17.08;;;15.00;91.10;;;;;;5032082;28;20205;-74
2021/08/11 03:43:12;;;;;;;20.45;15.40;;;15.00;91.20;;;;;;5032532;28;20439;-73
2021/08/11 03:45:37;;;;;;;20.42;17.10;;;15.10;91.10;;;;;;5031469;28;20374;-72
2021/08/11 03:48:03;;;;;;;21.00;16.58;;;15.00;91.10;;;;;;5032612;28;20033;-74
2021/08/11 03:50:29;;;;;;;20.38;16.33;;;15.00;91.00;;;;;;5034200;28;20382;-73
2021/08/11 03:52:55;;;;;;;16.45;13.48;;;15.00;91.10;;;;;;5041519;28;20029;-72
2021/08/11 03:55:21;;;;;;;22.08;16.48;;;15.00;91.10;;;;;;5029420;28;20026;-73
2021/08/11 03:57:46;;;;;;;22.77;16.98;;;15.10;91.20;;;;;;5052328;28;20025;-73
2021/08/11 04:00:13;;;;;;;22.73;18.33;;;15.10;91.10;;;;;;5040522;28;20026;-73
2021/08/11 04:02:39;;;;;;;21.75;17.83;;;15.10;91.10;;;;;;5052731;28;20053;-73
2021/08/11 04:05:09;;;;;;;23.30;18.17;;;15.10;91.10;;;;;;5034534;28;20051;-73
2021/08/11 04:07:35;;;;;;;21.33;17.67;;;15.20;91.20;;;;;;5014301;28;20033;-73
2021/08/11 04:10:05;;;;;;;21.10;17.73;;;15.10;91.10;;;;;;5031721;28;20036;-73
2021/08/11 04:12:31;;;;;;;22.95;16.80;;;15.10;91.10;;;;;;5014181;28;20078;-73
2021/08/11 04:14:57;;;;;;;21.65;16.20;;;15.10;91.10;;;;;;5031754;28;20025;-73
2021/08/11 04:17:22;;;;;;;22.15;16.02;;;15.20;91.10;;;;;;5034634;28;20481;-73
2021/08/11 04:19:48;;;;;;;23.45;18.02;;;15.20;91.10;;;;;;5035252;28;20022;-73
2021/08/11 04:22:13;;;;;;;23.58;18.50;;;15.20;91.10;;;;;;5034298;28;20525;-72
2021/08/11 04:24:39;;;;;;;26.00;18.45;;;15.30;91.10;;;;;;5035766;28;20104;-73
2021/08/11 04:27:04;;;;;;;27.25;19.90;;;15.30;91.10;;;;;;5035379;28;20032;-74
2021/08/11 04:29:30;;;;;;;31.02;22.02;;;15.30;91.10;;;;;;5035301;28;20470;-73
2021/08/11 04:31:56;;;;;;;46.42;24.58;;;15.30;91.20;;;;;;5035692;28;20048;-74
2021/08/11 04:34:22;;;;;;;57.45;24.00;;;15.40;91.40;;;;;;5035489;28;20065;-73
2021/08/11 04:36:48;;;;;;;51.25;23.02;;;15.40;91.50;;;;;;5035316;28;20075;-73
2021/08/11 04:39:14;;;;;;;47.42;20.80;;;15.40;91.60;;;;;;5017669;28;20374;-73
2021/08/11 04:41:39;;;;;;;46.72;23.38;;;15.40;91.70;;;;;;5035234;28;20035;-74
2021/08/11 04:44:10;;;;;;;34.13;22.10;;;15.40;91.80;;;;;;5034039;28;20022;-73
2021/08/11 04:46:35;;;;;;;63.70;23.20;;;15.50;91.80;;;;;;5035234;28;20413;-72
2021/08/11 04:49:01;;;;;;;60.28;21.30;;;15.40;91.90;;;;;;5035076;28;20108;-74
2021/08/11 04:51:27;;;;;;;54.42;19.88;;;15.50;92.00;;;;;;5035738;28;20090;-74
2021/08/11 04:53:52;;;;;;;65.85;19.52;;;15.50;92.00;;;;;;5036674;28;20018;-73
2021/08/11 04:56:19;;;;;;;38.33;18.10;;;15.50;92.10;;;;;;5037003;28;20066;-73
2021/08/11 04:58:44;;;;;;;44.00;19.45;;;15.60;92.10;;;;;;5019837;28;20029;-73
2021/08/11 05:01:11;;;;;;;52.15;19.05;;;15.60;92.20;;;;;;5037120;28;20034;-74
2021/08/11 05:03:37;;;;;;;72.97;19.75;;;15.60;92.20;;;;;;5036213;28;20029;-73
2021/08/11 05:06:03;;;;;;;78.82;18.27;;;15.60;92.20;;;;;;5034424;28;20029;-74
2021/08/11 05:08:29;;;;;;;36.50;18.83;;;15.70;92.30;;;;;;5034700;28;20032;-74
2021/08/11 05:10:55;;;;;;;42.63;16.10;;;15.70;92.20;;;;;;5034259;28;20507;-74
2021/08/11 05:13:21;;;;;;;92.95;22.15;;;15.70;92.20;;;;;;5034957;28;20034;-74
2021/08/11 05:15:46;;;;;;;74.00;17.42;;;15.80;92.20;;;;;;5034466;28;20037;-74
2021/08/11 05:18:12;;;;;;;42.58;16.17;;;15.80;92.10;;;;;;5017014;28;20116;-74
2021/08/11 05:20:38;;;;;;;41.67;16.08;;;15.80;92.20;;;;;;5034249;28;20056;-74
2021/08/11 05:23:04;;;;;;;36.65;15.00;;;15.80;92.20;;;;;;5034041;28;20029;-73
2021/08/11 05:25:29;;;;;;;49.47;16.30;;;15.80;92.20;;;;;;5034556;28;20040;-73
2021/08/11 05:27:55;;;;;;;41.83;16.10;;;15.80;92.20;;;;;;5032357;28;20479;-72
2021/08/11 05:30:21;;;;;;;44.40;17.10;;;15.80;92.10;;;;;;5035085;28;20037;-73
2021/08/11 05:32:47;;;;;;;35.65;16.73;;;15.80;92.10;;;;;;5034507;28;20029;-73
2021/08/11 05:35:12;;;;;;;40.17;16.02;;;15.80;92.10;;;;;;5035043;28;20029;-73
2021/08/11 05:37:40;;;;;;;21.77;14.60;;;15.80;92.10;;;;;;5034503;28;20018;-73
2021/08/11 05:40:07;;;;;;;43.05;13.45;;;15.90;92.10;;;;;;5034622;28;20056;-74
2021/08/11 05:42:32;;;;;;;45.40;13.68;;;15.90;91.90;;;;;;5038120;28;20029;-71
2021/08/11 05:44:58;;;;;;;20.85;13.63;;;15.90;91.80;;;;;;5046211;28;20032;-73
2021/08/11 05:47:24;;;;;;;23.33;15.68;;;15.90;91.80;;;;;;5046316;28;20018;-71
2021/08/11 05:49:49;;;;;;;17.08;12.93;;;15.90;91.80;;;;;;5036036;28;20113;-73
2021/08/11 05:52:15;;;;;;;25.77;15.68;;;16.00;91.80;;;;;;5042092;28;20033;-74
2021/08/11 05:54:41;;;;;;;25.25;16.90;;;16.00;91.70;;;;;;5045050;28;20025;-74
2021/08/11 05:57:08;;;;;;;26.98;15.18;;;16.00;91.60;;;;;;5042745;28;20041;-74
2021/08/11 05:59:37;;;;;;;22.67;13.77;;;16.10;91.60;;;;;;5042469;28;20425;-73
2021/08/11 06:02:03;;;;;;;20.70;14.32;;;16.00;91.60;;;;;;5033719;28;20459;-73
2021/08/11 06:04:28;;;;;;;49.10;15.13;;;16.10;91.60;;;;;;5033788;28;20028;-73
2021/08/11 06:06:54;;;;;;;19.92;11.93;;;16.10;91.50;;;;;;5033582;28;20112;-73
2021/08/11 06:09:20;;;;;;;17.13;13.07;;;16.20;91.50;;;;;;5033559;28;20025;-73
2021/08/11 06:11:46;;;;;;;20.98;13.50;;;16.20;91.40;;;;;;5015984;28;20068;-73
2021/08/11 06:14:12;;;;;;;19.92;15.18;;;16.20;91.30;;;;;;5033166;28;20021;-73
2021/08/11 06:16:38;;;;;;;18.25;13.82;;;16.40;91.30;;;;;;5033248;28;20052;-73
2021/08/11 06:19:04;;;;;;;20.23;15.18;;;16.50;91.30;;;;;;5030693;28;20457;-74
2021/08/11 06:21:31;;;;;;;14.73;12.13;;;16.60;91.10;;;;;;5006126;28;20038;-72
2021/08/11 06:23:56;;;;;;;14.63;10.98;;;16.80;90.90;;;;;;5003849;28;20026;-74
2021/08/11 06:26:23;;;;;;;15.73;12.77;;;16.90;90.70;;;;;;5023270;28;20071;-73
2021/08/11 06:28:49;;;;;;;19.42;13.50;;;17.00;90.60;;;;;;5002831;28;20048;-74
2021/08/11 06:31:17;;;;;;;15.77;12.15;;;17.10;90.60;;;;;;5022768;28;20524;-74
2021/08/11 06:33:46;;;;;;;20.92;14.95;;;17.30;90.40;;;;;;5024347;28;20072;-73
2021/08/11 06:36:12;;;;;;;19.23;15.73;;;17.40;90.10;;;;;;4995721;28;20079;-74
2021/08/11 06:38:38;;;;;;;18.58;15.18;;;17.50;90.00;;;;;;5011359;28;20112;-74
2021/08/11 06:41:04;;;;;;;18.88;13.85;;;17.60;89.90;;;;;;5011648;28;20110;-74
2021/08/11 06:43:30;;;;;;;15.45;12.52;;;17.80;89.60;;;;;;5013178;28;20038;-73
2021/08/11 06:45:55;;;;;;;16.85;13.88;;;17.90;89.40;;;;;;5012810;28;20022;-73
2021/08/11 06:48:21;;;;;;;18.90;15.32;;;18.00;88.60;;;;;;5012163;28;20099;-74
2021/08/11 06:50:47;;;;;;;18.75;13.77;;;18.00;87.70;;;;;;4995586;28;20022;-74
2021/08/11 06:53:12;;;;;;;21.63;14.43;;;18.10;88.20;;;;;;5013393;28;20104;-73
2021/08/11 06:55:38;;;;;;;14.15;10.77;;;18.20;88.00;;;;;;5013094;28;20104;-74
2021/08/11 06:58:04;;;;;;;15.18;11.95;;;18.40;87.10;;;;;;5013112;28;20057;-73
2021/08/11 07:00:30;;;;;;;16.42;13.48;;;18.50;86.30;;;;;;5013390;28;20101;-74
2021/08/11 07:02:56;;;;;;;16.70;13.15;;;18.50;86.30;;;;;;5012659;28;20034;-74
2021/08/11 07:05:21;;;;;;;14.95;11.77;;;18.60;86.10;;;;;;4998353;28;20455;-73
2021/08/11 07:07:50;;;;;;;17.65;13.82;;;18.70;85.90;;;;;;5033256;28;20026;-74
2021/08/11 07:10:17;;;;;;;16.60;12.57;;;18.80;85.90;;;;;;5032854;28;20030;-73
2021/08/11 07:12:43;;;;;;;15.57;12.10;;;18.90;85.50;;;;;;5033123;28;20028;-74
2021/08/11 07:15:11;;;;;;;15.57;11.18;;;19.10;85.30;;;;;;5032891;28;20040;-74
2021/08/11 07:17:55;;;;;;;15.25;11.80;;;19.20;84.50;;;;;;5032955;28;20116;-74
2021/08/11 07:20:22;;;;;;;16.77;12.07;;;19.20;83.70;;;;;;5032444;28;20088;-73
2021/08/11 07:22:48;;;;;;;14.15;10.98;;;19.30;83.50;;;;;;5032317;28;20393;-74
2021/08/11 07:25:14;;;;;;;17.95;12.05;;;19.50;83.40;;;;;;5031999;28;20033;-73
2021/08/11 07:27:39;;;;;;;15.30;12.10;;;19.60;83.30;;;;;;5014606;28;20021;-73
2021/08/11 07:30:06;;;;;;;16.20;12.75;;;19.70;83.10;;;;;;5015646;28;20025;-74
2021/08/11 07:32:32;;;;;;;15.93;12.20;;;19.90;82.90;;;;;;5017845;28;20047;-73
2021/08/11 07:35:00;;;;;;;14.85;10.80;;;20.00;82.70;;;;;;5042255;28;20061;-73
2021/08/11 07:37:25;;;;;;;15.15;11.85;;;20.20;81.80;;;;;;5041795;28;20029;-73
2021/08/11 07:39:54;;;;;;;15.23;10.32;;;20.30;80.60;;;;;;5023146;28;20055;-73
2021/08/11 07:42:20;;;;;;;12.27;9.63;;;20.30;80.40;;;;;;5034154;28;20072;-74
2021/08/11 07:44:45;;;;;;;13.60;10.20;;;20.30;80.00;;;;;;5033024;28;20026;-74
2021/08/11 07:47:11;;;;;;;15.32;11.15;;;20.40;80.40;;;;;;5034601;28;20032;-74
2021/08/11 07:49:37;;;;;;;15.73;12.02;;;20.50;79.90;;;;;;5049587;28;20029;-74
2021/08/11 07:52:03;;;;;;;16.02;11.90;;;20.60;78.20;;;;;;5024160;28;20030;-74
2021/08/11 07:54:29;;;;;;;16.35;12.35;;;20.70;78.40;;;;;;5038181;28;20025;-73
2021/08/11 07:56:55;;;;;;;16.85;11.77;;;20.90;76.50;;;;;;5036550;28;20030;-74
2021/08/11 07:59:20;;;;;;;14.27;9.05;;;20.80;76.20;;;;;;5036383;28;20021;-74
2021/08/11 08:01:46;;;;;;;15.45;10.85;;;20.80;74.90;;;;;;5018530;28;20096;-73
2021/08/11 08:04:14;;;;;;;14.68;10.55;;;20.90;76.50;;;;;;5035724;28;20029;-73
2021/08/11 08:06:40;;;;;;;14.77;10.13;;;21.10;75.50;;;;;;5035576;28;20042;-73
2021/08/11 08:09:05;;;;;;;15.05;9.85;;;21.20;74.80;;;;;;5035565;28;20048;-73
2021/08/11 08:11:31;;;;;;;16.02;11.45;;;21.40;73.20;;;;;;5018053;28;20036;-73
2021/08/11 08:13:57;;;;;;;16.25;9.93;;;21.50;73.20;;;;;;5035775;28;20070;-74
2021/08/11 08:16:22;;;;;;;12.90;9.88;;;21.60;72.20;;;;;;5018007;28;20029;-74
2021/08/11 08:18:48;;;;;;;13.50;9.98;;;21.70;72.40;;;;;;5035410;28;20025;-73
2021/08/11 08:21:13;;;;;;;14.68;8.82;;;21.80;71.50;;;;;;5035764;28;20123;-72
2021/08/11 08:23:42;;;;;;;16.45;11.98;;;21.90;70.50;;;;;;5035742;28;20029;-74
2021/08/11 08:26:07;;;;;;;14.82;8.85;;;21.90;70.60;;;;;;5017267;28;20412;-72
2021/08/11 08:28:33;;;;;;;18.27;11.73;;;21.90;71.10;;;;;;5035832;28;20036;-74
2021/08/11 08:30:58;;;;;;;11.32;6.47;;;22.00;71.60;;;;;;5035314;28;20025;-73
2021/08/11 08:33:24;;;;;;;15.07;11.63;;;22.20;70.00;;;;;;5035650;28;20018;-73
2021/08/11 08:35:50;;;;;;;19.75;15.15;;;22.20;70.50;;;;;;5017602;28;20127;-74
2021/08/11 08:38:18;;;;;;;17.55;10.90;;;22.30;71.30;;;;;;5035072;28;20029;-73
2021/08/11 08:40:46;;;;;;;17.00;12.73;;;22.50;70.70;;;;;;5035182;28;20411;-73
2021/08/11 08:43:12;;;;;;;19.60;10.38;;;22.80;70.10;;;;;;5035211;28;20188;-73
2021/08/11 08:45:42;;;;;;;15.98;12.88;;;22.90;68.60;;;;;;5035334;28;20489;-73
2021/08/11 08:48:08;;;;;;;18.83;10.88;;;23.00;69.00;;;;;;5035241;28;20091;-73
2021/08/11 08:50:35;;;;;;;13.80;10.45;;;22.90;68.30;;;;;;5035295;28;20462;-74
2021/08/11 08:53:02;;;;;;;15.27;10.75;;;22.90;69.00;;;;;;5035346;28;20075;-73
2021/08/11 08:55:28;;;;;;;8.13;4.55;;;23.10;69.00;;;;;;5034007;28;20041;-73
2021/08/11 08:57:53;;;;;;;13.23;8.75;;;23.30;68.20;;;;;;5035336;28;20021;-73
2021/08/11 09:00:19;;;;;;;9.05;6.22;;;23.50;68.20;;;;;;5034972;28;20037;-72
2021/08/11 09:02:45;;;;;;;19.67;13.30;;;23.60;67.40;;;;;;5034299;28;20030;-74
2021/08/11 09:05:12;;;;;;;10.13;6.63;;;23.50;67.30;;;;;;5016956;28;20021;-74
2021/08/11 09:07:46;;;;;;;10.80;6.97;;;23.30;67.80;;;;;;5035313;28;20029;-74
2021/08/11 09:10:29;;;;;;;9.38;6.00;;;23.10;68.30;;;;;;5035039;28;20018;-74
2021/08/11 09:12:58;;;;;;;7.30;4.97;;;23.00;69.00;;;;;;5035507;28;20025;-73
2021/08/11 09:15:37;;;;;;;13.05;7.35;;;22.90;69.30;;;;;;5017396;28;20476;-74
2021/08/11 09:18:14;;;;;;;9.10;4.82;;;22.80;69.60;;;;;;5017029;28;20112;-74
2021/08/11 09:20:42;;;;;;;10.48;6.22;;;22.60;70.10;;;;;;5035349;28;20032;-73
2021/08/11 09:23:08;;;;;;;15.38;8.30;;;22.50;70.60;;;;;;5037151;28;20466;-76
2021/08/11 09:25:34;;;;;;;9.85;5.38;;;22.50;70.90;;;;;;5046767;28;20037;-73
2021/08/11 09:27:59;;;;;;;14.88;10.90;;;22.70;70.80;;;;;;5052114;28;20026;-73
2021/08/11 09:30:26;;;;;;;11.70;7.20;;;23.00;70.10;;;;;;5038031;28;20034;-74
2021/08/11 09:33:00;;;;;;;17.75;14.18;;;23.10;69.60;;;;;;5035430;28;20083;-73
2021/08/11 09:35:32;;;;;;;10.25;6.80;;;23.10;69.30;;;;;;5035439;28;20013;-73
2021/08/11 09:38:08;;;;;;;14.48;9.77;;;23.20;69.40;;;;;;5035501;28;20028;-75
2021/08/11 09:40:36;;;;;;;7.80;5.07;;;23.20;69.20;;;;;;5036087;28;20029;-74
2021/08/11 09:43:31;;;;;;;15.77;12.30;;;23.30;69.30;;;;;;5019885;28;20343;-74
2021/08/11 09:45:57;;;;;;;12.20;8.00;;;23.50;68.00;;;;;;5047958;28;20048;-74
2021/08/11 09:48:24;;;;;;;11.15;8.07;;;23.60;67.80;;;;;;5028097;28;20013;-74
2021/08/11 09:50:58;;;;;;;13.93;9.82;;;23.80;67.80;;;;;;5047374;28;20029;-74
2021/08/11 09:53:25;;;;;;;13.65;10.25;;;24.00;66.80;;;;;;5034221;28;20018;-73
2021/08/11 09:56:08;;;;;;;12.05;7.80;;;24.20;67.30;;;;;;5033911;28;20053;-73
2021/08/11 09:58:40;;;;;;;12.98;8.82;;;24.20;66.30;;;;;;5034052;28;20072;-74
2021/08/11 10:01:06;;;;;;;14.35;10.10;;;24.30;64.90;;;;;;5033777;28;20037;-74
2021/08/11 10:03:33;;;;;;;9.25;5.93;;;24.40;64.50;;;;;;5034155;28;20493;-73
2021/08/11 10:05:59;;;;;;;9.82;5.65;;;24.50;66.00;;;;;;5033709;28;20030;-73
2021/08/11 10:08:33;;;;;;;10.32;7.05;;;24.30;66.10;;;;;;5034255;28;20104;-74
2021/08/11 10:10:59;;;;;;;13.45;8.25;;;24.50;65.90;;;;;;5034387;28;20032;-73
2021/08/11 10:13:26;;;;;;;7.25;4.63;;;24.50;65.80;;;;;;5035088;28;20053;-73
2021/08/11 10:15:53;;;;;;;18.80;11.48;;;24.50;65.50;;;;;;5019762;28;20030;-74
2021/08/11 10:18:25;;;;;;;9.00;5.88;;;24.60;64.50;;;;;;5037148;28;20083;-74
2021/08/11 10:20:54;;;;;;;7.72;4.82;;;24.60;64.90;;;;;;5039252;28;20037;-74
2021/08/11 10:23:20;;;;;;;7.28;4.45;;;24.60;67.00;;;;;;5035346;28;20060;-73
2021/08/11 10:25:47;;;;;;;9.07;5.60;;;24.80;65.20;;;;;;5033752;28;20501;-73
2021/08/11 10:28:16;;;;;;;5.82;3.65;;;24.90;63.80;;;;;;5033477;28;20466;-73
2021/08/11 10:30:42;;;;;;;7.70;4.15;;;25.00;64.20;;;;;;5015755;28;20049;-74
2021/08/11 10:33:09;;;;;;;7.72;4.22;;;25.10;63.70;;;;;;5032159;28;20470;-74
2021/08/11 10:35:35;;;;;;;6.68;4.25;;;25.20;63.90;;;;;;5033471;28;20025;-73
2021/08/11 10:38:03;;;;;;;4.70;2.60;;;25.40;63.60;;;;;;5033491;28;20059;-74
2021/08/11 10:40:29;;;;;;;5.00;3.58;;;25.60;64.50;;;;;;5033398;28;20032;-74
2021/08/11 10:42:57;;;;;;;8.48;5.35;;;25.40;64.90;;;;;;5015421;28;20033;-74
2021/08/11 10:45:24;;;;;;;7.82;4.95;;;25.20;66.70;;;;;;5033150;28;20419;-73
2021/08/11 10:47:50;;;;;;;7.55;4.20;;;25.10;65.30;;;;;;5031842;28;20425;-75
2021/08/11 10:50:16;;;;;;;6.45;4.85;;;25.30;67.00;;;;;;5015323;28;20120;-74
2021/08/11 10:52:42;;;;;;;7.68;4.85;;;25.50;64.50;;;;;;5015086;28;20442;-74
2021/08/11 10:55:08;;;;;;;5.40;3.10;;;25.60;64.50;;;;;;5032646;28;20017;-74
2021/08/11 10:57:34;;;;;;;6.05;3.67;;;25.70;63.80;;;;;;5032839;28;20030;-75
2021/08/11 11:00:18;;;;;;;6.63;3.90;;;25.80;63.00;;;;;;5030669;28;20021;-74
2021/08/11 11:02:48;;;;;;;9.10;6.72;;;25.80;63.40;;;;;;5033105;28;20436;-73
2021/08/11 11:05:19;;;;;;;6.47;4.28;;;25.90;65.00;;;;;;5031052;28;20029;-75
2021/08/11 11:08:13;;;;;;;7.13;4.85;;;26.10;62.60;;;;;;5029271;28;20025;-75
2021/08/11 11:10:49;;;;;;;6.80;4.40;;;26.30;59.60;;;;;;5033968;28;20029;-73
2021/08/11 11:13:23;;;;;;;5.03;2.88;;;26.50;61.40;;;;;;5034904;28;20026;-73
2021/08/11 11:15:53;;;;;;;9.10;5.72;;;26.50;64.30;;;;;;5049419;28;20009;-72
2021/08/11 11:18:23;;;;;;;6.00;4.13;;;26.60;64.30;;;;;;5037456;28;20180;-74
2021/08/11 11:21:12;;;;;;;7.07;4.40;;;26.70;62.90;;;;;;5040848;28;20047;-74
2021/08/11 11:23:44;;;;;;;8.18;5.32;;;27.00;62.60;;;;;;5033000;28;20029;-74
2021/08/11 11:26:15;;;;;;;7.13;3.60;;;27.30;60.00;;;;;;5032359;28;20025;-75
2021/08/11 11:28:59;;;;;;;4.97;2.88;;;27.50;58.50;;;;;;5033268;28;20028;-74
2021/08/11 11:31:41;;;;;;;4.50;2.83;;;27.50;58.70;;;;;;5032873;28;20038;-74
2021/08/11 11:37:05;;;;;;;7.65;4.40;;;27.70;57.20;;;;;;5033243;28;20033;-74
2021/08/11 11:39:32;;;;;;;6.22;3.53;;;27.70;57.40;;;;;;5029476;28;20049;-74
2021/08/11 11:42:06;;;;;;;5.60;3.38;;;27.50;59.50;;;;;;5044006;28;20037;-75
2021/08/11 11:44:57;;;;;;;7.43;4.55;;;27.20;61.80;;;;;;5049610;28;20022;-75
2021/08/11 11:47:38;;;;;;;4.57;2.72;;;27.20;59.20;;;;;;5018229;28;20025;-75
2021/08/11 11:50:22;;;;;;;5.55;3.65;;;27.00;65.30;;;;;;5032468;28;20030;-73
2021/08/11 11:52:54;;;;;;;5.45;3.72;;;26.80;65.40;;;;;;5032576;28;20040;-74
2021/08/11 11:55:41;;;;;;;6.18;3.60;;;26.80;63.50;;;;;;5032467;28;20021;-76
2021/08/11 11:58:15;;;;;;;6.35;4.75;;;26.90;61.50;;;;;;5032304;28;20030;-75
2021/08/11 12:00:43;;;;;;;7.32;4.13;;;27.00;60.70;;;;;;5014661;28;20025;-75
2021/08/11 12:03:09;;;;;;;7.95;4.47;;;27.20;58.50;;;;;;5014689;28;20465;-74
2021/08/11 12:05:49;;;;;;;5.53;3.20;;;27.60;58.50;;;;;;5031927;28;20029;-75
2021/08/11 12:08:20;;;;;;;5.70;3.72;;;27.90;59.10;;;;;;5014747;28;20041;-74
2021/08/11 12:10:59;;;;;;;8.25;5.30;;;28.00;59.20;;;;;;5014350;28;20112;-74
2021/08/11 12:13:25;;;;;;;6.53;4.22;;;27.80;58.10;;;;;;5031824;28;20117;-75
2021/08/11 12:15:56;;;;;;;4.53;2.72;;;27.40;59.40;;;;;;5014468;28;20104;-75
2021/08/11 12:18:24;;;;;;;4.72;2.92;;;27.20;64.00;;;;;;5014535;28;20022;-75
2021/08/11 12:20:54;;;;;;;4.72;2.95;;;27.20;64.60;;;;;;5031966;28;20160;-74
2021/08/11 12:23:34;;;;;;;4.80;2.65;;;27.40;62.90;;;;;;5031879;28;20531;-75
2021/08/11 12:26:15;;;;;;;6.65;3.80;;;27.70;62.10;;;;;;5032123;28;20022;-75
2021/08/11 12:28:46;;;;;;;5.07;3.22;;;27.70;60.00;;;;;;5014609;28;20026;-75
2021/08/11 12:31:22;;;;;;;5.55;2.90;;;27.80;63.10;;;;;;5014334;28;20030;-75
2021/08/11 12:33:50;;;;;;;6.30;3.83;;;27.90;62.10;;;;;;5032189;28;20017;-75
2021/08/11 12:36:23;;;;;;;5.35;3.60;;;27.90;59.70;;;;;;5031811;28;20025;-75
2021/08/11 12:38:59;;;;;;;6.32;3.45;;;27.80;59.40;;;;;;5035722;28;20025;-75
2021/08/11 12:41:25;;;;;;;6.63;3.00;;;27.80;58.90;;;;;;5035501;28;20033;-76
2021/08/11 12:43:53;;;;;;;9.90;5.60;;;27.60;61.40;;;;;;5035792;28;20029;-78